sensor_id;sensor_type;location;lat;lon;timestamp;P1;durP1;ratioP1;P2;durP2;ratioP2
15476;SDS011;7840;42.702;23.296;2022-07-11T00:02:18;1.85;;;1.67;;
15476;SDS011;7840;42.702;23.296;2022-07-11T00:04:46;2.30;;;2.08;;
15476;SDS011;7840;42.702;23.296;2022-07-11T00:07:13;2.88;;;2.03;;
15476;SDS011;7840;42.702;23.296;2022-07-11T00:09:42;3.65;;;2.03;;
15476;SDS011;7840;42.702;23.296;2022-07-11T00:12:13;3.67;;;1.88;;
15476;SDS011;7840;42.702;23.296;2022-07-11T00:14:47;3.92;;;1.75;;
15476;SDS011;7840;42.702;23.296;2022-07-11T00:17:15;5.63;;;2.00;;
15476;SDS011;7840;42.702;23.296;2022-07-11T00:19:45;1.80;;;1.70;;
15476;SDS011;7840;42.702;23.296;2022-07-11T00:22:13;4.43;;;2.00;;
15476;SDS011;7840;42.702;23.296;2022-07-11T00:24:41;2.83;;;1.80;;
15476;SDS011;7840;42.702;23.296;2022-07-11T00:27:09;2.05;;;1.70;;
15476;SDS011;7840;42.702;23.296;2022-07-11T00:29:39;2.15;;;1.95;;
15476;SDS011;7840;42.702;23.296;2022-07-11T00:32:08;2.90;;;2.05;;
15476;SDS011;7840;42.702;23.296;2022-07-11T00:37:02;3.92;;;1.90;;
15476;SDS011;7840;42.702;23.296;2022-07-11T00:39:30;2.85;;;1.77;;
15476;SDS011;7840;42.702;23.296;2022-07-11T00:41:57;2.08;;;1.92;;
15476;SDS011;7840;42.702;23.296;2022-07-11T00:44:25;3.40;;;2.00;;
15476;SDS011;7840;42.702;23.296;2022-07-11T00:46:53;2.45;;;1.83;;
15476;SDS011;7840;42.702;23.296;2022-07-11T00:49:22;4.20;;;1.98;;
15476;SDS011;7840;42.702;23.296;2022-07-11T00:51:50;2.67;;;1.90;;
15476;SDS011;7840;42.702;23.296;2022-07-11T00:54:19;5.00;;;2.60;;
15476;SDS011;7840;42.702;23.296;2022-07-11T00:56:49;2.20;;;1.70;;
15476;SDS011;7840;42.702;23.296;2022-07-11T00:59:17;2.10;;;1.70;;
15476;SDS011;7840;42.702;23.296;2022-07-11T01:01:45;1.73;;;1.60;;
15476;SDS011;7840;42.702;23.296;2022-07-11T01:04:12;2.00;;;1.90;;
15476;SDS011;7840;42.702;23.296;2022-07-11T01:06:41;5.55;;;1.98;;
15476;SDS011;7840;42.702;23.296;2022-07-11T01:09:09;1.90;;;1.80;;
15476;SDS011;7840;42.702;23.296;2022-07-11T01:11:37;2.10;;;1.77;;
15476;SDS011;7840;42.702;23.296;2022-07-11T01:14:06;1.80;;;1.70;;
15476;SDS011;7840;42.702;23.296;2022-07-11T01:16:34;2.25;;;2.05;;
15476;SDS011;7840;42.702;23.296;2022-07-11T01:19:04;2.97;;;2.20;;
15476;SDS011;7840;42.702;23.296;2022-07-11T01:21:34;2.13;;;1.92;;
15476;SDS011;7840;42.702;23.296;2022-07-11T01:24:07;2.45;;;1.90;;
15476;SDS011;7840;42.702;23.296;2022-07-11T01:26:36;2.85;;;2.03;;
15476;SDS011;7840;42.702;23.296;2022-07-11T01:29:06;2.00;;;1.90;;
15476;SDS011;7840;42.702;23.296;2022-07-11T01:31:37;4.07;;;2.00;;
15476;SDS011;7840;42.702;23.296;2022-07-11T01:34:05;2.00;;;1.80;;
15476;SDS011;7840;42.702;23.296;2022-07-11T01:36:33;4.47;;;2.00;;
15476;SDS011;7840;42.702;23.296;2022-07-11T01:39:02;2.95;;;2.00;;
15476;SDS011;7840;42.702;23.296;2022-07-11T01:41:31;1.85;;;1.75;;
15476;SDS011;7840;42.702;23.296;2022-07-11T01:44:00;4.93;;;1.67;;
15476;SDS011;7840;42.702;23.296;2022-07-11T01:46:28;3.65;;;2.13;;
15476;SDS011;7840;42.702;23.296;2022-07-11T01:48:55;2.15;;;1.73;;
15476;SDS011;7840;42.702;23.296;2022-07-11T01:51:23;2.00;;;1.77;;
15476;SDS011;7840;42.702;23.296;2022-07-11T01:53:51;3.03;;;1.90;;
15476;SDS011;7840;42.702;23.296;2022-07-11T01:56:20;2.38;;;1.70;;
15476;SDS011;7840;42.702;23.296;2022-07-11T01:58:54;2.08;;;1.70;;
15476;SDS011;7840;42.702;23.296;2022-07-11T02:01:21;1.67;;;1.58;;
15476;SDS011;7840;42.702;23.296;2022-07-11T02:03:52;2.38;;;1.80;;
15476;SDS011;7840;42.702;23.296;2022-07-11T02:06:20;1.90;;;1.80;;
15476;SDS011;7840;42.702;23.296;2022-07-11T02:08:48;1.85;;;1.75;;
15476;SDS011;7840;42.702;23.296;2022-07-11T02:11:15;1.90;;;1.80;;
15476;SDS011;7840;42.702;23.296;2022-07-11T02:13:43;1.90;;;1.73;;
15476;SDS011;7840;42.702;23.296;2022-07-11T02:16:12;3.35;;;1.90;;
15476;SDS011;7840;42.702;23.296;2022-07-11T02:18:40;1.65;;;1.55;;
15476;SDS011;7840;42.702;23.296;2022-07-11T02:21:08;1.67;;;1.55;;
15476;SDS011;7840;42.702;23.296;2022-07-11T02:23:37;2.10;;;1.88;;
15476;SDS011;7840;42.702;23.296;2022-07-11T02:26:08;2.97;;;1.80;;
15476;SDS011;7840;42.702;23.296;2022-07-11T02:28:36;2.35;;;1.73;;
15476;SDS011;7840;42.702;23.296;2022-07-11T02:31:04;6.10;;;1.98;;
15476;SDS011;7840;42.702;23.296;2022-07-11T02:33:33;1.73;;;1.60;;
15476;SDS011;7840;42.702;23.296;2022-07-11T02:36:01;2.00;;;1.80;;
15476;SDS011;7840;42.702;23.296;2022-07-11T02:38:29;1.80;;;1.67;;
15476;SDS011;7840;42.702;23.296;2022-07-11T02:40:57;1.58;;;1.48;;
15476;SDS011;7840;42.702;23.296;2022-07-11T02:43:25;2.58;;;1.80;;
15476;SDS011;7840;42.702;23.296;2022-07-11T02:45:53;5.25;;;1.90;;
15476;SDS011;7840;42.702;23.296;2022-07-11T02:48:21;2.00;;;1.70;;
15476;SDS011;7840;42.702;23.296;2022-07-11T02:50:53;1.80;;;1.70;;
15476;SDS011;7840;42.702;23.296;2022-07-11T02:53:22;2.85;;;1.80;;
15476;SDS011;7840;42.702;23.296;2022-07-11T02:55:52;5.20;;;2.10;;
15476;SDS011;7840;42.702;23.296;2022-07-11T02:58:22;2.50;;;1.63;;
15476;SDS011;7840;42.702;23.296;2022-07-11T03:00:49;1.70;;;1.60;;
15476;SDS011;7840;42.702;23.296;2022-07-11T03:03:17;5.22;;;2.05;;
15476;SDS011;7840;42.702;23.296;2022-07-11T03:05:45;4.03;;;2.00;;
15476;SDS011;7840;42.702;23.296;2022-07-11T03:08:30;2.22;;;2.03;;
15476;SDS011;7840;42.702;23.296;2022-07-11T03:11:01;2.42;;;1.60;;
15476;SDS011;7840;42.702;23.296;2022-07-11T03:13:31;2.13;;;1.70;;
15476;SDS011;7840;42.702;23.296;2022-07-11T03:15:58;3.45;;;1.95;;
15476;SDS011;7840;42.702;23.296;2022-07-11T03:18:30;1.95;;;1.75;;
15476;SDS011;7840;42.702;23.296;2022-07-11T03:21:03;2.03;;;1.92;;
15476;SDS011;7840;42.702;23.296;2022-07-11T03:23:32;2.05;;;1.83;;
15476;SDS011;7840;42.702;23.296;2022-07-11T03:26:01;2.10;;;1.65;;
15476;SDS011;7840;42.702;23.296;2022-07-11T03:28:30;3.47;;;1.70;;
15476;SDS011;7840;42.702;23.296;2022-07-11T03:30:59;2.00;;;1.77;;
15476;SDS011;7840;42.702;23.296;2022-07-11T03:33:27;3.15;;;1.90;;
15476;SDS011;7840;42.702;23.296;2022-07-11T03:35:56;2.55;;;1.58;;
15476;SDS011;7840;42.702;23.296;2022-07-11T03:38:23;3.47;;;1.98;;
15476;SDS011;7840;42.702;23.296;2022-07-11T03:40:54;4.28;;;2.33;;
15476;SDS011;7840;42.702;23.296;2022-07-11T03:43:26;2.22;;;1.80;;
15476;SDS011;7840;42.702;23.296;2022-07-11T03:45:57;2.13;;;1.92;;
15476;SDS011;7840;42.702;23.296;2022-07-11T03:48:25;1.80;;;1.70;;
15476;SDS011;7840;42.702;23.296;2022-07-11T03:51:02;1.92;;;1.73;;
15476;SDS011;7840;42.702;23.296;2022-07-11T03:53:31;2.35;;;1.75;;
15476;SDS011;7840;42.702;23.296;2022-07-11T03:56:00;2.05;;;1.90;;
15476;SDS011;7840;42.702;23.296;2022-07-11T03:58:28;3.55;;;1.75;;
15476;SDS011;7840;42.702;23.296;2022-07-11T04:01:00;2.65;;;1.83;;
15476;SDS011;7840;42.702;23.296;2022-07-11T04:03:27;5.95;;;2.00;;
15476;SDS011;7840;42.702;23.296;2022-07-11T04:05:55;4.65;;;2.00;;
15476;SDS011;7840;42.702;23.296;2022-07-11T04:08:23;2.00;;;1.80;;
15476;SDS011;7840;42.702;23.296;2022-07-11T04:10:51;3.08;;;1.83;;
15476;SDS011;7840;42.702;23.296;2022-07-11T04:13:23;1.85;;;1.50;;
15476;SDS011;7840;42.702;23.296;2022-07-11T04:15:50;4.30;;;2.00;;
15476;SDS011;7840;42.702;23.296;2022-07-11T04:18:18;2.88;;;1.60;;
15476;SDS011;7840;42.702;23.296;2022-07-11T04:20:46;2.08;;;1.83;;
15476;SDS011;7840;42.702;23.296;2022-07-11T04:23:14;1.60;;;1.50;;
15476;SDS011;7840;42.702;23.296;2022-07-11T04:25:42;2.13;;;1.80;;
15476;SDS011;7840;42.702;23.296;2022-07-11T04:28:11;2.10;;;1.90;;
15476;SDS011;7840;42.702;23.296;2022-07-11T04:30:40;2.05;;;1.95;;
15476;SDS011;7840;42.702;23.296;2022-07-11T04:33:07;2.05;;;1.67;;
15476;SDS011;7840;42.702;23.296;2022-07-11T04:35:46;1.88;;;1.77;;
15476;SDS011;7840;42.702;23.296;2022-07-11T04:38:14;2.10;;;2.00;;
15476;SDS011;7840;42.702;23.296;2022-07-11T04:40:42;2.63;;;2.10;;
15476;SDS011;7840;42.702;23.296;2022-07-11T04:43:10;2.13;;;1.88;;
15476;SDS011;7840;42.702;23.296;2022-07-11T04:45:37;4.32;;;2.00;;
15476;SDS011;7840;42.702;23.296;2022-07-11T04:48:09;1.77;;;1.67;;
15476;SDS011;7840;42.702;23.296;2022-07-11T04:50:37;1.92;;;1.70;;
15476;SDS011;7840;42.702;23.296;2022-07-11T04:53:06;3.72;;;1.70;;
15476;SDS011;7840;42.702;23.296;2022-07-11T04:55:34;1.90;;;1.67;;
15476;SDS011;7840;42.702;23.296;2022-07-11T04:58:06;4.47;;;1.88;;
15476;SDS011;7840;42.702;23.296;2022-07-11T05:00:36;3.15;;;2.00;;
15476;SDS011;7840;42.702;23.296;2022-07-11T05:05:59;2.92;;;2.10;;
15476;SDS011;7840;42.702;23.296;2022-07-11T05:08:27;3.13;;;2.00;;
15476;SDS011;7840;42.702;23.296;2022-07-11T05:10:55;2.10;;;1.90;;
15476;SDS011;7840;42.702;23.296;2022-07-11T05:13:22;2.15;;;1.83;;
15476;SDS011;7840;42.702;23.296;2022-07-11T05:15:50;3.60;;;1.95;;
15476;SDS011;7840;42.702;23.296;2022-07-11T05:18:18;2.33;;;1.98;;
15476;SDS011;7840;42.702;23.296;2022-07-11T05:20:48;4.90;;;2.10;;
15476;SDS011;7840;42.702;23.296;2022-07-11T05:23:16;2.20;;;2.00;;
15476;SDS011;7840;42.702;23.296;2022-07-11T05:25:44;2.47;;;2.00;;
15476;SDS011;7840;42.702;23.296;2022-07-11T05:28:15;8.60;;;2.22;;
15476;SDS011;7840;42.702;23.296;2022-07-11T05:31:01;2.72;;;2.00;;
15476;SDS011;7840;42.702;23.296;2022-07-11T05:33:32;4.05;;;2.85;;
15476;SDS011;7840;42.702;23.296;2022-07-11T05:36:04;2.75;;;2.13;;
15476;SDS011;7840;42.702;23.296;2022-07-11T05:38:32;1.85;;;1.60;;
15476;SDS011;7840;42.702;23.296;2022-07-11T05:41:00;3.05;;;1.83;;
15476;SDS011;7840;42.702;23.296;2022-07-11T05:43:34;4.80;;;2.05;;
15476;SDS011;7840;42.702;23.296;2022-07-11T05:46:05;5.97;;;1.75;;
15476;SDS011;7840;42.702;23.296;2022-07-11T05:48:49;2.83;;;1.70;;
15476;SDS011;7840;42.702;23.296;2022-07-11T05:51:22;2.30;;;1.40;;
15476;SDS011;7840;42.702;23.296;2022-07-11T05:53:50;1.50;;;1.40;;
15476;SDS011;7840;42.702;23.296;2022-07-11T05:56:28;1.63;;;1.25;;
15476;SDS011;7840;42.702;23.296;2022-07-11T05:58:57;2.47;;;1.60;;
15476;SDS011;7840;42.702;23.296;2022-07-11T06:01:28;1.63;;;1.20;;
15476;SDS011;7840;42.702;23.296;2022-07-11T06:03:59;2.47;;;1.63;;
15476;SDS011;7840;42.702;23.296;2022-07-11T06:06:31;2.90;;;1.10;;
15476;SDS011;7840;42.702;23.296;2022-07-11T06:08:59;4.00;;;1.30;;
15476;SDS011;7840;42.702;23.296;2022-07-11T06:11:27;2.05;;;1.30;;
15476;SDS011;7840;42.702;23.296;2022-07-11T06:13:55;4.03;;;1.55;;
15476;SDS011;7840;42.702;23.296;2022-07-11T06:16:22;3.83;;;1.40;;
15476;SDS011;7840;42.702;23.296;2022-07-11T06:18:50;1.63;;;1.30;;
15476;SDS011;7840;42.702;23.296;2022-07-11T06:21:18;1.40;;;1.30;;
15476;SDS011;7840;42.702;23.296;2022-07-11T06:23:48;2.10;;;1.38;;
15476;SDS011;7840;42.702;23.296;2022-07-11T06:26:16;1.60;;;1.33;;
15476;SDS011;7840;42.702;23.296;2022-07-11T06:28:44;1.25;;;1.00;;
15476;SDS011;7840;42.702;23.296;2022-07-11T06:31:12;4.97;;;1.35;;
15476;SDS011;7840;42.702;23.296;2022-07-11T06:33:41;3.33;;;1.63;;
15476;SDS011;7840;42.702;23.296;2022-07-11T06:36:12;5.10;;;1.20;;
15476;SDS011;7840;42.702;23.296;2022-07-11T06:38:39;1.70;;;1.40;;
15476;SDS011;7840;42.702;23.296;2022-07-11T06:41:09;1.58;;;1.38;;
15476;SDS011;7840;42.702;23.296;2022-07-11T06:43:39;3.53;;;1.60;;
15476;SDS011;7840;42.702;23.296;2022-07-11T06:46:07;4.10;;;1.30;;
15476;SDS011;7840;42.702;23.296;2022-07-11T06:48:35;1.77;;;1.27;;
15476;SDS011;7840;42.702;23.296;2022-07-11T06:51:16;6.88;;;1.33;;
15476;SDS011;7840;42.702;23.296;2022-07-11T06:53:47;2.25;;;1.15;;
15476;SDS011;7840;42.702;23.296;2022-07-11T06:56:21;1.92;;;1.20;;
15476;SDS011;7840;42.702;23.296;2022-07-11T06:58:50;1.75;;;0.98;;
15476;SDS011;7840;42.702;23.296;2022-07-11T07:01:25;1.88;;;1.20;;
15476;SDS011;7840;42.702;23.296;2022-07-11T07:03:55;2.05;;;1.10;;
15476;SDS011;7840;42.702;23.296;2022-07-11T07:06:23;1.55;;;1.10;;
15476;SDS011;7840;42.702;23.296;2022-07-11T07:08:51;1.95;;;1.33;;
15476;SDS011;7840;42.702;23.296;2022-07-11T07:11:18;2.65;;;1.20;;
15476;SDS011;7840;42.702;23.296;2022-07-11T07:13:47;5.97;;;1.30;;
15476;SDS011;7840;42.702;23.296;2022-07-11T07:16:16;2.97;;;1.25;;
15476;SDS011;7840;42.702;23.296;2022-07-11T07:18:44;2.00;;;1.42;;
15476;SDS011;7840;42.702;23.296;2022-07-11T07:21:17;3.17;;;1.25;;
15476;SDS011;7840;42.702;23.296;2022-07-11T07:23:59;1.15;;;1.00;;
15476;SDS011;7840;42.702;23.296;2022-07-11T07:26:32;1.40;;;1.30;;
15476;SDS011;7840;42.702;23.296;2022-07-11T07:29:10;2.67;;;1.00;;
15476;SDS011;7840;42.702;23.296;2022-07-11T07:31:38;2.67;;;1.10;;
15476;SDS011;7840;42.702;23.296;2022-07-11T07:34:06;2.63;;;1.10;;
15476;SDS011;7840;42.702;23.296;2022-07-11T07:36:36;4.53;;;1.42;;
15476;SDS011;7840;42.702;23.296;2022-07-11T07:39:04;1.20;;;1.10;;
15476;SDS011;7840;42.702;23.296;2022-07-11T07:41:31;2.78;;;1.15;;
15476;SDS011;7840;42.702;23.296;2022-07-11T07:44:03;1.95;;;1.00;;
15476;SDS011;7840;42.702;23.296;2022-07-11T07:46:36;3.53;;;1.77;;
15476;SDS011;7840;42.702;23.296;2022-07-11T07:49:07;1.75;;;1.00;;
15476;SDS011;7840;42.702;23.296;2022-07-11T07:51:35;1.75;;;1.30;;
15476;SDS011;7840;42.702;23.296;2022-07-11T07:54:07;2.97;;;1.17;;
15476;SDS011;7840;42.702;23.296;2022-07-11T07:56:35;3.30;;;1.40;;
15476;SDS011;7840;42.702;23.296;2022-07-11T07:59:18;2.22;;;1.30;;
15476;SDS011;7840;42.702;23.296;2022-07-11T08:01:51;2.40;;;1.05;;
15476;SDS011;7840;42.702;23.296;2022-07-11T08:04:18;5.63;;;1.40;;
15476;SDS011;7840;42.702;23.296;2022-07-11T08:06:45;3.28;;;1.45;;
15476;SDS011;7840;42.702;23.296;2022-07-11T08:09:13;4.38;;;2.17;;
15476;SDS011;7840;42.702;23.296;2022-07-11T08:11:41;2.72;;;1.20;;
15476;SDS011;7840;42.702;23.296;2022-07-11T08:14:08;3.90;;;1.08;;
15476;SDS011;7840;42.702;23.296;2022-07-11T08:16:36;5.82;;;1.45;;
15476;SDS011;7840;42.702;23.296;2022-07-11T08:19:08;1.30;;;1.20;;
15476;SDS011;7840;42.702;23.296;2022-07-11T08:21:36;1.92;;;1.00;;
15476;SDS011;7840;42.702;23.296;2022-07-11T08:24:04;3.80;;;1.30;;
15476;SDS011;7840;42.702;23.296;2022-07-11T08:26:32;2.17;;;1.10;;
15476;SDS011;7840;42.702;23.296;2022-07-11T08:29:02;2.45;;;1.10;;
15476;SDS011;7840;42.702;23.296;2022-07-11T08:31:30;2.28;;;0.98;;
15476;SDS011;7840;42.702;23.296;2022-07-11T08:34:04;1.85;;;1.02;;
15476;SDS011;7840;42.702;23.296;2022-07-11T08:36:36;1.50;;;0.90;;
15476;SDS011;7840;42.702;23.296;2022-07-11T08:39:03;2.30;;;1.23;;
15476;SDS011;7840;42.702;23.296;2022-07-11T08:41:31;4.25;;;1.33;;
15476;SDS011;7840;42.702;23.296;2022-07-11T08:43:59;2.40;;;1.08;;
15476;SDS011;7840;42.702;23.296;2022-07-11T08:46:34;2.33;;;1.10;;
15476;SDS011;7840;42.702;23.296;2022-07-11T08:49:10;3.67;;;1.25;;
15476;SDS011;7840;42.702;23.296;2022-07-11T08:51:40;1.35;;;1.05;;
15476;SDS011;7840;42.702;23.296;2022-07-11T08:54:23;2.55;;;0.82;;
15476;SDS011;7840;42.702;23.296;2022-07-11T08:56:51;1.98;;;1.00;;
15476;SDS011;7840;42.702;23.296;2022-07-11T08:59:25;3.72;;;1.25;;
15476;SDS011;7840;42.702;23.296;2022-07-11T09:01:57;2.70;;;0.82;;
15476;SDS011;7840;42.702;23.296;2022-07-11T09:04:28;1.70;;;0.95;;
15476;SDS011;7840;42.702;23.296;2022-07-11T09:07:21;5.78;;;1.10;;
15476;SDS011;7840;42.702;23.296;2022-07-11T09:09:53;2.03;;;0.80;;
15476;SDS011;7840;42.702;23.296;2022-07-11T09:12:21;1.90;;;1.00;;
15476;SDS011;7840;42.702;23.296;2022-07-11T09:14:50;2.33;;;1.10;;
15476;SDS011;7840;42.702;23.296;2022-07-11T09:17:23;1.85;;;1.10;;
15476;SDS011;7840;42.702;23.296;2022-07-11T09:19:55;2.33;;;1.00;;
15476;SDS011;7840;42.702;23.296;2022-07-11T09:22:27;2.22;;;1.05;;
15476;SDS011;7840;42.702;23.296;2022-07-11T09:25:13;2.22;;;1.40;;
15476;SDS011;7840;42.702;23.296;2022-07-11T09:27:49;0.95;;;0.82;;
15476;SDS011;7840;42.702;23.296;2022-07-11T09:30:22;0.90;;;0.90;;
15476;SDS011;7840;42.702;23.296;2022-07-11T09:32:54;3.63;;;0.90;;
15476;SDS011;7840;42.702;23.296;2022-07-11T09:35:25;3.30;;;1.00;;
15476;SDS011;7840;42.702;23.296;2022-07-11T09:37:56;1.77;;;1.00;;
15476;SDS011;7840;42.702;23.296;2022-07-11T09:40:25;1.15;;;1.00;;
15476;SDS011;7840;42.702;23.296;2022-07-11T09:42:53;1.05;;;0.85;;
15476;SDS011;7840;42.702;23.296;2022-07-11T09:45:22;1.33;;;1.02;;
15476;SDS011;7840;42.702;23.296;2022-07-11T09:47:55;3.05;;;1.25;;
15476;SDS011;7840;42.702;23.296;2022-07-11T09:50:24;1.50;;;1.10;;
15476;SDS011;7840;42.702;23.296;2022-07-11T09:53:04;2.60;;;1.10;;
15476;SDS011;7840;42.702;23.296;2022-07-11T09:58:26;1.30;;;1.10;;
15476;SDS011;7840;42.702;23.296;2022-07-11T10:01:00;3.25;;;1.50;;
15476;SDS011;7840;42.702;23.296;2022-07-11T10:03:30;2.78;;;1.02;;
15476;SDS011;7840;42.702;23.296;2022-07-11T10:05:58;2.72;;;1.10;;
15476;SDS011;7840;42.702;23.296;2022-07-11T10:08:28;3.10;;;1.10;;
15476;SDS011;7840;42.702;23.296;2022-07-11T10:10:58;3.20;;;1.40;;
15476;SDS011;7840;42.702;23.296;2022-07-11T10:13:28;1.60;;;1.00;;
15476;SDS011;7840;42.702;23.296;2022-07-11T10:15:56;1.25;;;1.10;;
15476;SDS011;7840;42.702;23.296;2022-07-11T10:18:39;1.45;;;0.98;;
15476;SDS011;7840;42.702;23.296;2022-07-11T10:21:14;1.73;;;1.17;;
15476;SDS011;7840;42.702;23.296;2022-07-11T10:23:51;2.17;;;1.10;;
15476;SDS011;7840;42.702;23.296;2022-07-11T10:26:40;5.13;;;1.50;;
15476;SDS011;7840;42.702;23.296;2022-07-11T10:29:29;1.40;;;0.90;;
15476;SDS011;7840;42.702;23.296;2022-07-11T10:32:07;1.02;;;0.93;;
15476;SDS011;7840;42.702;23.296;2022-07-11T10:34:36;11.95;;;1.38;;
15476;SDS011;7840;42.702;23.296;2022-07-11T10:37:04;3.10;;;1.02;;
15476;SDS011;7840;42.702;23.296;2022-07-11T10:39:57;2.30;;;1.00;;
15476;SDS011;7840;42.702;23.296;2022-07-11T10:42:37;1.33;;;1.23;;
15476;SDS011;7840;42.702;23.296;2022-07-11T10:45:08;1.02;;;0.90;;
15476;SDS011;7840;42.702;23.296;2022-07-11T10:47:41;1.42;;;0.95;;
15476;SDS011;7840;42.702;23.296;2022-07-11T10:50:21;1.30;;;0.75;;
15476;SDS011;7840;42.702;23.296;2022-07-11T10:52:58;0.98;;;0.75;;
15476;SDS011;7840;42.702;23.296;2022-07-11T10:55:36;4.45;;;1.30;;
15476;SDS011;7840;42.702;23.296;2022-07-11T10:58:07;3.55;;;1.20;;
15476;SDS011;7840;42.702;23.296;2022-07-11T11:01:07;2.30;;;1.20;;
15476;SDS011;7840;42.702;23.296;2022-07-11T11:03:36;1.88;;;1.02;;
15476;SDS011;7840;42.702;23.296;2022-07-11T11:06:04;2.00;;;0.93;;
15476;SDS011;7840;42.702;23.296;2022-07-11T11:08:42;2.42;;;1.10;;
15476;SDS011;7840;42.702;23.296;2022-07-11T11:14:22;1.13;;;0.93;;
15476;SDS011;7840;42.702;23.296;2022-07-11T11:16:52;4.80;;;1.10;;
15476;SDS011;7840;42.702;23.296;2022-07-11T11:22:24;1.70;;;1.10;;
15476;SDS011;7840;42.702;23.296;2022-07-11T11:24:55;0.98;;;0.93;;
15476;SDS011;7840;42.702;23.296;2022-07-11T11:27:31;1.85;;;0.93;;
15476;SDS011;7840;42.702;23.296;2022-07-11T11:29:59;1.55;;;0.93;;
15476;SDS011;7840;42.702;23.296;2022-07-11T11:32:32;4.00;;;1.17;;
15476;SDS011;7840;42.702;23.296;2022-07-11T11:35:00;1.45;;;1.10;;
15476;SDS011;7840;42.702;23.296;2022-07-11T11:37:31;1.08;;;0.90;;
15476;SDS011;7840;42.702;23.296;2022-07-11T11:40:00;1.90;;;1.05;;
15476;SDS011;7840;42.702;23.296;2022-07-11T11:42:43;2.95;;;1.00;;
15476;SDS011;7840;42.702;23.296;2022-07-11T11:45:12;1.27;;;0.85;;
15476;SDS011;7840;42.702;23.296;2022-07-11T11:47:46;1.35;;;0.95;;
15476;SDS011;7840;42.702;23.296;2022-07-11T11:50:15;4.57;;;1.30;;
15476;SDS011;7840;42.702;23.296;2022-07-11T11:52:43;1.20;;;1.10;;
15476;SDS011;7840;42.702;23.296;2022-07-11T11:55:11;1.65;;;0.95;;
15476;SDS011;7840;42.702;23.296;2022-07-11T11:57:40;1.15;;;1.02;;
15476;SDS011;7840;42.702;23.296;2022-07-11T12:00:30;1.92;;;1.00;;
15476;SDS011;7840;42.702;23.296;2022-07-11T12:02:58;4.30;;;1.15;;
15476;SDS011;7840;42.702;23.296;2022-07-11T12:05:27;0.90;;;0.80;;
15476;SDS011;7840;42.702;23.296;2022-07-11T12:07:55;1.10;;;1.00;;
15476;SDS011;7840;42.702;23.296;2022-07-11T12:10:22;3.13;;;1.20;;
15476;SDS011;7840;42.702;23.296;2022-07-11T12:12:50;1.98;;;1.30;;
15476;SDS011;7840;42.702;23.296;2022-07-11T12:15:23;1.20;;;1.10;;
15476;SDS011;7840;42.702;23.296;2022-07-11T12:18:01;1.27;;;1.17;;
15476;SDS011;7840;42.702;23.296;2022-07-11T12:20:37;2.05;;;1.05;;
15476;SDS011;7840;42.702;23.296;2022-07-11T12:23:11;1.42;;;1.00;;
15476;SDS011;7840;42.702;23.296;2022-07-11T12:25:43;0.90;;;0.70;;
15476;SDS011;7840;42.702;23.296;2022-07-11T12:28:11;1.83;;;1.33;;
15476;SDS011;7840;42.702;23.296;2022-07-11T12:33:28;2.95;;;1.13;;
15476;SDS011;7840;42.702;23.296;2022-07-11T12:35:57;1.67;;;1.02;;
15476;SDS011;7840;42.702;23.296;2022-07-11T12:41:16;1.10;;;1.00;;
15476;SDS011;7840;42.702;23.296;2022-07-11T12:43:47;2.45;;;1.00;;
15476;SDS011;7840;42.702;23.296;2022-07-11T12:46:35;2.55;;;1.05;;
15476;SDS011;7840;42.702;23.296;2022-07-11T12:49:03;1.88;;;1.23;;
15476;SDS011;7840;42.702;23.296;2022-07-11T12:51:39;1.67;;;1.15;;
15476;SDS011;7840;42.702;23.296;2022-07-11T12:54:19;1.20;;;1.10;;
15476;SDS011;7840;42.702;23.296;2022-07-11T12:56:56;1.85;;;1.00;;
15476;SDS011;7840;42.702;23.296;2022-07-11T12:59:25;1.60;;;1.08;;
15476;SDS011;7840;42.702;23.296;2022-07-11T13:02:01;2.75;;;0.95;;
15476;SDS011;7840;42.702;23.296;2022-07-11T13:04:31;1.60;;;1.10;;
15476;SDS011;7840;42.702;23.296;2022-07-11T13:10:09;1.20;;;0.93;;
15476;SDS011;7840;42.702;23.296;2022-07-11T13:12:38;1.40;;;1.10;;
15476;SDS011;7840;42.702;23.296;2022-07-11T13:15:10;1.30;;;1.10;;
15476;SDS011;7840;42.702;23.296;2022-07-11T13:17:48;1.20;;;0.82;;
15476;SDS011;7840;42.702;23.296;2022-07-11T13:20:26;1.40;;;1.30;;
15476;SDS011;7840;42.702;23.296;2022-07-11T13:23:00;1.75;;;1.15;;
15476;SDS011;7840;42.702;23.296;2022-07-11T13:25:33;2.95;;;1.10;;
15476;SDS011;7840;42.702;23.296;2022-07-11T13:28:04;1.08;;;0.95;;
15476;SDS011;7840;42.702;23.296;2022-07-11T13:30:32;1.33;;;1.20;;
15476;SDS011;7840;42.702;23.296;2022-07-11T13:33:09;1.10;;;1.00;;
15476;SDS011;7840;42.702;23.296;2022-07-11T13:35:37;3.58;;;1.35;;
15476;SDS011;7840;42.702;23.296;2022-07-11T13:38:06;2.78;;;1.00;;
15476;SDS011;7840;42.702;23.296;2022-07-11T13:40:34;1.20;;;1.08;;
15476;SDS011;7840;42.702;23.296;2022-07-11T13:43:02;1.35;;;1.20;;
15476;SDS011;7840;42.702;23.296;2022-07-11T13:45:30;1.13;;;1.00;;
15476;SDS011;7840;42.702;23.296;2022-07-11T13:47:57;1.45;;;1.10;;
15476;SDS011;7840;42.702;23.296;2022-07-11T13:50:27;2.25;;;1.00;;
15476;SDS011;7840;42.702;23.296;2022-07-11T13:52:55;1.65;;;0.98;;
15476;SDS011;7840;42.702;23.296;2022-07-11T13:55:23;1.08;;;0.90;;
15476;SDS011;7840;42.702;23.296;2022-07-11T13:57:54;2.75;;;1.02;;
15476;SDS011;7840;42.702;23.296;2022-07-11T14:00:28;3.17;;;1.10;;
15476;SDS011;7840;42.702;23.296;2022-07-11T14:02:57;1.75;;;1.00;;
15476;SDS011;7840;42.702;23.296;2022-07-11T14:05:25;0.98;;;0.93;;
15476;SDS011;7840;42.702;23.296;2022-07-11T14:07:55;3.33;;;1.10;;
15476;SDS011;7840;42.702;23.296;2022-07-11T14:10:22;1.08;;;0.95;;
15476;SDS011;7840;42.702;23.296;2022-07-11T14:12:50;1.83;;;1.00;;
15476;SDS011;7840;42.702;23.296;2022-07-11T14:15:18;1.20;;;1.10;;
15476;SDS011;7840;42.702;23.296;2022-07-11T14:17:45;3.08;;;1.40;;
15476;SDS011;7840;42.702;23.296;2022-07-11T14:20:13;1.27;;;1.15;;
15476;SDS011;7840;42.702;23.296;2022-07-11T14:22:42;2.67;;;1.23;;
15476;SDS011;7840;42.702;23.296;2022-07-11T14:25:09;1.33;;;1.20;;
15476;SDS011;7840;42.702;23.296;2022-07-11T14:27:43;1.08;;;1.00;;
15476;SDS011;7840;42.702;23.296;2022-07-11T14:30:11;1.20;;;1.10;;
15476;SDS011;7840;42.702;23.296;2022-07-11T14:32:41;4.50;;;1.33;;
15476;SDS011;7840;42.702;23.296;2022-07-11T14:35:12;2.05;;;1.10;;
15476;SDS011;7840;42.702;23.296;2022-07-11T14:37:40;2.42;;;1.20;;
15476;SDS011;7840;42.702;23.296;2022-07-11T14:40:09;2.33;;;1.20;;
15476;SDS011;7840;42.702;23.296;2022-07-11T14:42:37;1.70;;;1.10;;
15476;SDS011;7840;42.702;23.296;2022-07-11T14:45:05;2.50;;;1.30;;
15476;SDS011;7840;42.702;23.296;2022-07-11T14:47:33;2.08;;;1.20;;
15476;SDS011;7840;42.702;23.296;2022-07-11T14:50:26;2.85;;;1.40;;
15476;SDS011;7840;42.702;23.296;2022-07-11T14:52:55;2.38;;;1.30;;
15476;SDS011;7840;42.702;23.296;2022-07-11T14:55:26;1.27;;;1.05;;
15476;SDS011;7840;42.702;23.296;2022-07-11T14:57:57;1.92;;;1.48;;
15476;SDS011;7840;42.702;23.296;2022-07-11T15:00:25;1.27;;;1.17;;
15476;SDS011;7840;42.702;23.296;2022-07-11T15:02:55;1.77;;;1.40;;
15476;SDS011;7840;42.702;23.296;2022-07-11T15:05:43;3.55;;;1.30;;
15476;SDS011;7840;42.702;23.296;2022-07-11T15:08:12;2.35;;;1.30;;
15476;SDS011;7840;42.702;23.296;2022-07-11T15:10:57;2.50;;;1.23;;
15476;SDS011;7840;42.702;23.296;2022-07-11T15:13:42;1.50;;;1.30;;
15476;SDS011;7840;42.702;23.296;2022-07-11T15:16:10;3.67;;;1.42;;
15476;SDS011;7840;42.702;23.296;2022-07-11T15:18:37;1.75;;;1.27;;
15476;SDS011;7840;42.702;23.296;2022-07-11T15:21:06;2.35;;;1.08;;
15476;SDS011;7840;42.702;23.296;2022-07-11T15:23:35;3.28;;;1.10;;
15476;SDS011;7840;42.702;23.296;2022-07-11T15:26:03;2.78;;;1.20;;
15476;SDS011;7840;42.702;23.296;2022-07-11T15:28:32;3.38;;;1.42;;
15476;SDS011;7840;42.702;23.296;2022-07-11T15:31:00;1.30;;;1.20;;
15476;SDS011;7840;42.702;23.296;2022-07-11T15:33:29;1.30;;;1.20;;